sensor_id;sensor_type;location;lat;lon;timestamp;P1;durP1;ratioP1;P2;durP2;ratioP2
3643;SDS011;1838;50.742;7.158;2023-02-23T00:01:27;56.33;;;31.77;;
3643;SDS011;1838;50.742;7.158;2023-02-23T00:03:54;53.40;;;30.60;;
3643;SDS011;1838;50.742;7.158;2023-02-23T00:06:22;48.77;;;29.03;;
3643;SDS011;1838;50.742;7.158;2023-02-23T00:08:48;48.67;;;31.10;;
3643;SDS011;1838;50.742;7.158;2023-02-23T00:11:16;56.63;;;29.90;;
3643;SDS011;1838;50.742;7.158;2023-02-23T00:13:42;48.77;;;29.97;;
3643;SDS011;1838;50.742;7.158;2023-02-23T00:16:11;45.63;;;27.50;;
3643;SDS011;1838;50.742;7.158;2023-02-23T00:18:41;51.20;;;29.33;;
3643;SDS011;1838;50.742;7.158;2023-02-23T00:23:57;49.67;;;29.70;;
3643;SDS011;1838;50.742;7.158;2023-02-23T00:26:25;45.60;;;28.30;;
3643;SDS011;1838;50.742;7.158;2023-02-23T00:28:55;45.73;;;30.47;;
3643;SDS011;1838;50.742;7.158;2023-02-23T00:31:22;45.73;;;29.07;;
3643;SDS011;1838;50.742;7.158;2023-02-23T00:33:50;45.90;;;28.97;;
3643;SDS011;1838;50.742;7.158;2023-02-23T00:36:18;46.23;;;28.97;;
3643;SDS011;1838;50.742;7.158;2023-02-23T00:38:45;44.90;;;27.63;;
3643;SDS011;1838;50.742;7.158;2023-02-23T00:41:12;46.63;;;27.60;;
3643;SDS011;1838;50.742;7.158;2023-02-23T00:43:45;43.53;;;27.17;;
3643;SDS011;1838;50.742;7.158;2023-02-23T00:46:14;42.83;;;26.87;;
3643;SDS011;1838;50.742;7.158;2023-02-23T00:48:48;46.70;;;29.17;;
3643;SDS011;1838;50.742;7.158;2023-02-23T00:51:16;44.03;;;26.37;;
3643;SDS011;1838;50.742;7.158;2023-02-23T00:53:43;45.43;;;27.63;;
3643;SDS011;1838;50.742;7.158;2023-02-23T00:56:10;42.67;;;27.63;;
3643;SDS011;1838;50.742;7.158;2023-02-23T00:58:41;38.83;;;26.50;;
3643;SDS011;1838;50.742;7.158;2023-02-23T01:01:07;38.53;;;26.30;;
3643;SDS011;1838;50.742;7.158;2023-02-23T01:03:35;42.00;;;26.50;;
3643;SDS011;1838;50.742;7.158;2023-02-23T01:06:02;45.23;;;27.93;;
3643;SDS011;1838;50.742;7.158;2023-02-23T01:08:31;41.53;;;26.67;;
3643;SDS011;1838;50.742;7.158;2023-02-23T01:10:58;45.20;;;26.70;;
3643;SDS011;1838;50.742;7.158;2023-02-23T01:13:29;48.40;;;30.00;;
3643;SDS011;1838;50.742;7.158;2023-02-23T01:15:54;47.57;;;27.00;;
3643;SDS011;1838;50.742;7.158;2023-02-23T01:18:21;47.20;;;30.30;;
3643;SDS011;1838;50.742;7.158;2023-02-23T01:20:46;57.87;;;31.80;;
3643;SDS011;1838;50.742;7.158;2023-02-23T01:23:13;46.03;;;29.53;;
3643;SDS011;1838;50.742;7.158;2023-02-23T01:25:40;51.60;;;30.67;;
3643;SDS011;1838;50.742;7.158;2023-02-23T01:28:07;48.80;;;29.80;;
3643;SDS011;1838;50.742;7.158;2023-02-23T01:30:33;44.00;;;27.93;;
3643;SDS011;1838;50.742;7.158;2023-02-23T01:32:59;53.40;;;30.10;;
3643;SDS011;1838;50.742;7.158;2023-02-23T01:35:26;44.73;;;29.93;;
3643;SDS011;1838;50.742;7.158;2023-02-23T01:37:52;53.13;;;31.57;;
3643;SDS011;1838;50.742;7.158;2023-02-23T01:40:18;46.77;;;29.30;;
3643;SDS011;1838;50.742;7.158;2023-02-23T01:42:56;56.97;;;34.37;;
3643;SDS011;1838;50.742;7.158;2023-02-23T01:45:43;49.60;;;29.87;;
3643;SDS011;1838;50.742;7.158;2023-02-23T01:48:11;51.10;;;31.00;;
3643;SDS011;1838;50.742;7.158;2023-02-23T01:53:31;53.00;;;31.73;;
3643;SDS011;1838;50.742;7.158;2023-02-23T01:56:02;52.30;;;30.93;;
3643;SDS011;1838;50.742;7.158;2023-02-23T01:58:35;51.70;;;30.17;;
3643;SDS011;1838;50.742;7.158;2023-02-23T02:01:07;47.57;;;28.60;;
3643;SDS011;1838;50.742;7.158;2023-02-23T02:03:35;44.07;;;28.10;;
3643;SDS011;1838;50.742;7.158;2023-02-23T02:06:05;46.43;;;30.30;;
3643;SDS011;1838;50.742;7.158;2023-02-23T02:08:34;54.10;;;31.30;;
3643;SDS011;1838;50.742;7.158;2023-02-23T02:11:08;51.67;;;31.60;;
3643;SDS011;1838;50.742;7.158;2023-02-23T02:13:50;51.63;;;31.83;;
3643;SDS011;1838;50.742;7.158;2023-02-23T02:17:26;54.97;;;30.60;;
3643;SDS011;1838;50.742;7.158;2023-02-23T02:28:30;49.77;;;30.00;;
3643;SDS011;1838;50.742;7.158;2023-02-23T02:33:54;50.13;;;32.23;;
3643;SDS011;1838;50.742;7.158;2023-02-23T02:39:52;48.73;;;29.00;;
3643;SDS011;1838;50.742;7.158;2023-02-23T02:42:28;53.23;;;32.07;;
3643;SDS011;1838;50.742;7.158;2023-02-23T02:45:10;53.17;;;31.33;;
3643;SDS011;1838;50.742;7.158;2023-02-23T02:50:43;57.57;;;31.30;;
3643;SDS011;1838;50.742;7.158;2023-02-23T02:53:34;55.30;;;30.57;;
3643;SDS011;1838;50.742;7.158;2023-02-23T02:56:17;59.13;;;30.37;;
3643;SDS011;1838;50.742;7.158;2023-02-23T02:58:46;60.13;;;32.70;;
3643;SDS011;1838;50.742;7.158;2023-02-23T03:01:14;61.13;;;33.80;;
3643;SDS011;1838;50.742;7.158;2023-02-23T03:04:01;55.13;;;32.13;;
3643;SDS011;1838;50.742;7.158;2023-02-23T03:07:04;55.17;;;32.77;;
3643;SDS011;1838;50.742;7.158;2023-02-23T03:10:13;69.00;;;32.07;;
3643;SDS011;1838;50.742;7.158;2023-02-23T03:13:23;68.20;;;34.00;;
3643;SDS011;1838;50.742;7.158;2023-02-23T03:22:45;73.20;;;36.40;;
3643;SDS011;1838;50.742;7.158;2023-02-23T03:26:20;65.73;;;32.67;;
3643;SDS011;1838;50.742;7.158;2023-02-23T03:35:00;61.40;;;35.60;;
3643;SDS011;1838;50.742;7.158;2023-02-23T03:37:59;69.47;;;35.87;;
3643;SDS011;1838;50.742;7.158;2023-02-23T03:40:53;65.53;;;33.43;;
3643;SDS011;1838;50.742;7.158;2023-02-23T03:43:40;64.10;;;34.33;;
3643;SDS011;1838;50.742;7.158;2023-02-23T03:46:36;69.93;;;34.07;;
3643;SDS011;1838;50.742;7.158;2023-02-23T03:49:22;62.27;;;33.73;;
3643;SDS011;1838;50.742;7.158;2023-02-23T03:52:12;67.50;;;36.53;;
3643;SDS011;1838;50.742;7.158;2023-02-23T03:55:20;67.60;;;37.20;;
3643;SDS011;1838;50.742;7.158;2023-02-23T03:58:10;77.03;;;37.67;;
3643;SDS011;1838;50.742;7.158;2023-02-23T04:00:57;76.90;;;39.00;;
3643;SDS011;1838;50.742;7.158;2023-02-23T04:03:44;69.50;;;36.37;;
3643;SDS011;1838;50.742;7.158;2023-02-23T04:06:32;70.37;;;39.80;;
3643;SDS011;1838;50.742;7.158;2023-02-23T04:09:23;77.30;;;40.07;;
3643;SDS011;1838;50.742;7.158;2023-02-23T04:12:12;70.43;;;37.77;;
3643;SDS011;1838;50.742;7.158;2023-02-23T04:17:32;77.57;;;39.23;;
3643;SDS011;1838;50.742;7.158;2023-02-23T04:19:58;69.77;;;38.43;;
3643;SDS011;1838;50.742;7.158;2023-02-23T04:22:24;72.20;;;37.87;;
3643;SDS011;1838;50.742;7.158;2023-02-23T04:24:50;73.77;;;39.47;;
3643;SDS011;1838;50.742;7.158;2023-02-23T04:27:15;77.23;;;40.07;;
3643;SDS011;1838;50.742;7.158;2023-02-23T04:29:41;73.63;;;38.70;;
3643;SDS011;1838;50.742;7.158;2023-02-23T04:32:09;69.77;;;36.73;;
3643;SDS011;1838;50.742;7.158;2023-02-23T04:34:38;57.33;;;33.10;;
3643;SDS011;1838;50.742;7.158;2023-02-23T04:37:04;50.13;;;30.60;;
3643;SDS011;1838;50.742;7.158;2023-02-23T04:39:29;46.87;;;30.00;;
3643;SDS011;1838;50.742;7.158;2023-02-23T04:41:55;47.33;;;30.03;;
3643;SDS011;1838;50.742;7.158;2023-02-23T04:44:20;45.87;;;28.90;;
3643;SDS011;1838;50.742;7.158;2023-02-23T04:46:46;46.40;;;27.07;;
3643;SDS011;1838;50.742;7.158;2023-02-23T04:49:11;42.70;;;27.50;;
3643;SDS011;1838;50.742;7.158;2023-02-23T04:51:37;53.33;;;32.17;;
3643;SDS011;1838;50.742;7.158;2023-02-23T04:54:03;53.70;;;32.70;;
3643;SDS011;1838;50.742;7.158;2023-02-23T04:56:29;64.20;;;34.40;;
3643;SDS011;1838;50.742;7.158;2023-02-23T04:58:55;60.03;;;35.60;;
3643;SDS011;1838;50.742;7.158;2023-02-23T05:01:21;72.50;;;39.53;;
3643;SDS011;1838;50.742;7.158;2023-02-23T05:03:47;70.40;;;38.90;;
3643;SDS011;1838;50.742;7.158;2023-02-23T05:06:16;69.47;;;41.20;;
3643;SDS011;1838;50.742;7.158;2023-02-23T05:08:42;81.77;;;44.50;;
3643;SDS011;1838;50.742;7.158;2023-02-23T05:11:08;89.10;;;47.30;;
3643;SDS011;1838;50.742;7.158;2023-02-23T05:13:34;81.63;;;42.80;;
3643;SDS011;1838;50.742;7.158;2023-02-23T05:16:00;91.03;;;47.77;;
3643;SDS011;1838;50.742;7.158;2023-02-23T05:18:27;90.70;;;49.60;;
3643;SDS011;1838;50.742;7.158;2023-02-23T05:20:53;97.73;;;50.03;;
3643;SDS011;1838;50.742;7.158;2023-02-23T05:23:27;104.97;;;51.33;;
3643;SDS011;1838;50.742;7.158;2023-02-23T05:25:52;105.13;;;55.20;;
3643;SDS011;1838;50.742;7.158;2023-02-23T05:28:23;111.57;;;54.03;;
3643;SDS011;1838;50.742;7.158;2023-02-23T05:30:49;119.27;;;57.70;;
3643;SDS011;1838;50.742;7.158;2023-02-23T05:33:15;126.10;;;57.07;;
3643;SDS011;1838;50.742;7.158;2023-02-23T05:35:40;113.03;;;54.70;;
3643;SDS011;1838;50.742;7.158;2023-02-23T05:38:06;117.67;;;54.70;;
3643;SDS011;1838;50.742;7.158;2023-02-23T05:40:31;107.93;;;53.70;;
3643;SDS011;1838;50.742;7.158;2023-02-23T05:42:58;109.07;;;55.87;;
3643;SDS011;1838;50.742;7.158;2023-02-23T05:45:24;114.30;;;55.33;;
3643;SDS011;1838;50.742;7.158;2023-02-23T05:47:49;111.67;;;56.37;;
3643;SDS011;1838;50.742;7.158;2023-02-23T05:50:16;116.57;;;57.33;;
3643;SDS011;1838;50.742;7.158;2023-02-23T05:52:42;113.00;;;55.40;;
3643;SDS011;1838;50.742;7.158;2023-02-23T05:55:09;123.93;;;58.70;;
3643;SDS011;1838;50.742;7.158;2023-02-23T05:57:39;118.20;;;56.10;;
3643;SDS011;1838;50.742;7.158;2023-02-23T06:00:05;105.00;;;52.40;;
3643;SDS011;1838;50.742;7.158;2023-02-23T06:02:32;109.57;;;55.50;;
3643;SDS011;1838;50.742;7.158;2023-02-23T06:04:58;110.10;;;53.57;;
3643;SDS011;1838;50.742;7.158;2023-02-23T06:07:24;108.57;;;53.07;;
3643;SDS011;1838;50.742;7.158;2023-02-23T06:09:49;105.47;;;54.90;;
3643;SDS011;1838;50.742;7.158;2023-02-23T06:12:15;99.90;;;52.23;;
3643;SDS011;1838;50.742;7.158;2023-02-23T06:14:40;115.50;;;57.33;;
3643;SDS011;1838;50.742;7.158;2023-02-23T06:17:06;106.20;;;55.23;;
3643;SDS011;1838;50.742;7.158;2023-02-23T06:19:32;111.77;;;54.50;;
3643;SDS011;1838;50.742;7.158;2023-02-23T06:21:58;111.40;;;56.50;;
3643;SDS011;1838;50.742;7.158;2023-02-23T06:24:24;109.13;;;55.20;;
3643;SDS011;1838;50.742;7.158;2023-02-23T06:26:49;120.60;;;56.97;;
3643;SDS011;1838;50.742;7.158;2023-02-23T06:29:21;121.42;;;57.51;;
3643;SDS011;1838;50.742;7.158;2023-02-23T06:31:46;112.20;;;54.30;;
3643;SDS011;1838;50.742;7.158;2023-02-23T06:34:12;110.33;;;55.93;;
3643;SDS011;1838;50.742;7.158;2023-02-23T06:36:37;104.43;;;53.27;;
3643;SDS011;1838;50.742;7.158;2023-02-23T06:39:03;110.93;;;57.17;;
3643;SDS011;1838;50.742;7.158;2023-02-23T06:41:29;110.53;;;53.47;;
3643;SDS011;1838;50.742;7.158;2023-02-23T06:43:55;100.80;;;52.17;;
3643;SDS011;1838;50.742;7.158;2023-02-23T06:46:20;92.60;;;50.63;;
3643;SDS011;1838;50.742;7.158;2023-02-23T06:48:46;94.17;;;51.43;;
3643;SDS011;1838;50.742;7.158;2023-02-23T06:51:12;97.70;;;50.97;;
3643;SDS011;1838;50.742;7.158;2023-02-23T06:53:38;89.03;;;47.73;;
3643;SDS011;1838;50.742;7.158;2023-02-23T06:56:03;93.03;;;49.13;;
3643;SDS011;1838;50.742;7.158;2023-02-23T06:58:29;89.37;;;48.07;;
3643;SDS011;1838;50.742;7.158;2023-02-23T07:00:55;85.57;;;47.87;;
3643;SDS011;1838;50.742;7.158;2023-02-23T07:03:22;82.80;;;46.80;;
3643;SDS011;1838;50.742;7.158;2023-02-23T07:05:48;90.40;;;47.20;;
3643;SDS011;1838;50.742;7.158;2023-02-23T07:08:14;81.23;;;45.67;;
3643;SDS011;1838;50.742;7.158;2023-02-23T07:10:40;74.70;;;44.67;;
3643;SDS011;1838;50.742;7.158;2023-02-23T07:13:06;80.90;;;46.20;;
3643;SDS011;1838;50.742;7.158;2023-02-23T07:15:34;78.03;;;42.70;;
3643;SDS011;1838;50.742;7.158;2023-02-23T07:18:00;90.80;;;47.83;;
3643;SDS011;1838;50.742;7.158;2023-02-23T07:20:26;78.33;;;44.20;;
3643;SDS011;1838;50.742;7.158;2023-02-23T07:22:52;81.10;;;46.57;;
3643;SDS011;1838;50.742;7.158;2023-02-23T07:25:18;78.97;;;43.83;;
3643;SDS011;1838;50.742;7.158;2023-02-23T07:27:44;78.50;;;44.37;;
3643;SDS011;1838;50.742;7.158;2023-02-23T07:30:10;81.17;;;43.37;;
3643;SDS011;1838;50.742;7.158;2023-02-23T07:32:36;82.10;;;43.83;;
3643;SDS011;1838;50.742;7.158;2023-02-23T07:35:02;76.70;;;41.17;;
3643;SDS011;1838;50.742;7.158;2023-02-23T07:37:28;75.40;;;41.00;;
3643;SDS011;1838;50.742;7.158;2023-02-23T07:39:54;70.67;;;40.93;;
3643;SDS011;1838;50.742;7.158;2023-02-23T07:42:19;75.17;;;42.13;;
3643;SDS011;1838;50.742;7.158;2023-02-23T07:44:45;87.93;;;42.43;;
3643;SDS011;1838;50.742;7.158;2023-02-23T07:47:10;70.03;;;40.03;;
3643;SDS011;1838;50.742;7.158;2023-02-23T07:49:36;73.67;;;40.30;;
3643;SDS011;1838;50.742;7.158;2023-02-23T07:52:02;70.17;;;39.70;;
3643;SDS011;1838;50.742;7.158;2023-02-23T07:54:27;65.97;;;39.60;;
3643;SDS011;1838;50.742;7.158;2023-02-23T07:56:53;74.27;;;39.23;;
3643;SDS011;1838;50.742;7.158;2023-02-23T07:59:18;68.10;;;39.73;;
3643;SDS011;1838;50.742;7.158;2023-02-23T08:01:44;80.10;;;41.00;;
3643;SDS011;1838;50.742;7.158;2023-02-23T08:04:10;82.33;;;38.87;;
3643;SDS011;1838;50.742;7.158;2023-02-23T08:06:35;63.57;;;36.70;;
3643;SDS011;1838;50.742;7.158;2023-02-23T08:09:02;62.50;;;36.20;;
3643;SDS011;1838;50.742;7.158;2023-02-23T08:11:28;70.33;;;37.93;;
3643;SDS011;1838;50.742;7.158;2023-02-23T08:13:54;70.37;;;40.07;;
3643;SDS011;1838;50.742;7.158;2023-02-23T08:16:24;72.70;;;39.50;;
3643;SDS011;1838;50.742;7.158;2023-02-23T08:18:54;69.97;;;37.10;;
3643;SDS011;1838;50.742;7.158;2023-02-23T08:21:22;58.33;;;35.23;;
3643;SDS011;1838;50.742;7.158;2023-02-23T08:23:48;59.13;;;35.10;;
3643;SDS011;1838;50.742;7.158;2023-02-23T08:26:13;73.23;;;36.30;;
3643;SDS011;1838;50.742;7.158;2023-02-23T08:28:39;64.53;;;35.50;;
3643;SDS011;1838;50.742;7.158;2023-02-23T08:31:08;67.53;;;36.60;;
3643;SDS011;1838;50.742;7.158;2023-02-23T08:33:34;65.50;;;34.97;;
3643;SDS011;1838;50.742;7.158;2023-02-23T08:36:01;65.77;;;36.00;;
3643;SDS011;1838;50.742;7.158;2023-02-23T08:38:28;66.37;;;36.80;;
3643;SDS011;1838;50.742;7.158;2023-02-23T08:40:53;67.67;;;35.87;;
3643;SDS011;1838;50.742;7.158;2023-02-23T08:43:19;61.50;;;35.80;;
3643;SDS011;1838;50.742;7.158;2023-02-23T08:45:44;74.40;;;38.53;;
3643;SDS011;1838;50.742;7.158;2023-02-23T08:48:10;69.77;;;37.30;;
3643;SDS011;1838;50.742;7.158;2023-02-23T08:50:35;71.93;;;39.10;;
3643;SDS011;1838;50.742;7.158;2023-02-23T08:53:01;73.30;;;39.20;;
3643;SDS011;1838;50.742;7.158;2023-02-23T08:55:28;111.40;;;64.00;;
3643;SDS011;1838;50.742;7.158;2023-02-23T08:57:53;80.97;;;39.00;;
3643;SDS011;1838;50.742;7.158;2023-02-23T09:00:19;80.70;;;40.33;;
3643;SDS011;1838;50.742;7.158;2023-02-23T09:02:45;86.10;;;51.73;;
3643;SDS011;1838;50.742;7.158;2023-02-23T09:05:14;83.97;;;42.30;;
3643;SDS011;1838;50.742;7.158;2023-02-23T09:07:40;83.43;;;41.70;;
3643;SDS011;1838;50.742;7.158;2023-02-23T09:10:14;77.80;;;38.13;;
3643;SDS011;1838;50.742;7.158;2023-02-23T09:12:43;71.77;;;37.17;;
3643;SDS011;1838;50.742;7.158;2023-02-23T09:15:10;74.77;;;37.13;;
3643;SDS011;1838;50.742;7.158;2023-02-23T09:17:36;72.47;;;37.00;;
3643;SDS011;1838;50.742;7.158;2023-02-23T09:20:03;69.30;;;37.30;;
3643;SDS011;1838;50.742;7.158;2023-02-23T09:22:29;71.07;;;36.57;;
3643;SDS011;1838;50.742;7.158;2023-02-23T09:24:55;73.57;;;36.43;;
3643;SDS011;1838;50.742;7.158;2023-02-23T09:27:21;65.53;;;34.80;;
3643;SDS011;1838;50.742;7.158;2023-02-23T09:29:49;62.07;;;34.87;;
3643;SDS011;1838;50.742;7.158;2023-02-23T09:32:15;65.33;;;34.53;;
3643;SDS011;1838;50.742;7.158;2023-02-23T09:34:40;62.60;;;32.60;;
3643;SDS011;1838;50.742;7.158;2023-02-23T09:37:06;61.80;;;35.03;;
3643;SDS011;1838;50.742;7.158;2023-02-23T09:39:32;60.00;;;34.10;;
3643;SDS011;1838;50.742;7.158;2023-02-23T09:49:54;55.93;;;31.33;;
3643;SDS011;1838;50.742;7.158;2023-02-23T09:52:25;65.77;;;30.93;;
3643;SDS011;1838;50.742;7.158;2023-02-23T09:55:04;59.43;;;30.83;;
3643;SDS011;1838;50.742;7.158;2023-02-23T09:57:37;59.07;;;30.83;;
3643;SDS011;1838;50.742;7.158;2023-02-23T10:00:38;54.07;;;30.20;;
3643;SDS011;1838;50.742;7.158;2023-02-23T10:05:33;55.60;;;30.37;;
3643;SDS011;1838;50.742;7.158;2023-02-23T10:08:13;61.57;;;32.73;;
3643;SDS011;1838;50.742;7.158;2023-02-23T10:13:28;54.20;;;29.00;;
3643;SDS011;1838;50.742;7.158;2023-02-23T10:18:43;50.63;;;31.07;;
3643;SDS011;1838;50.742;7.158;2023-02-23T10:21:25;54.20;;;30.47;;
3643;SDS011;1838;50.742;7.158;2023-02-23T10:24:04;52.43;;;28.97;;
3643;SDS011;1838;50.742;7.158;2023-02-23T10:26:40;55.30;;;29.27;;
3643;SDS011;1838;50.742;7.158;2023-02-23T10:29:14;50.90;;;29.10;;
3643;SDS011;1838;50.742;7.158;2023-02-23T10:34:42;55.77;;;31.70;;
3643;SDS011;1838;50.742;7.158;2023-02-23T10:37:10;64.00;;;32.30;;
3643;SDS011;1838;50.742;7.158;2023-02-23T10:39:43;59.17;;;31.67;;
3643;SDS011;1838;50.742;7.158;2023-02-23T10:42:16;50.93;;;29.33;;
3643;SDS011;1838;50.742;7.158;2023-02-23T10:44:46;53.03;;;29.60;;
3643;SDS011;1838;50.742;7.158;2023-02-23T10:47:15;47.63;;;27.70;;
3643;SDS011;1838;50.742;7.158;2023-02-23T10:49:44;48.93;;;26.50;;
3643;SDS011;1838;50.742;7.158;2023-02-23T10:52:14;45.70;;;25.80;;
3643;SDS011;1838;50.742;7.158;2023-02-23T10:54:44;41.73;;;23.53;;
3643;SDS011;1838;50.742;7.158;2023-02-23T10:57:17;43.87;;;25.13;;
3643;SDS011;1838;50.742;7.158;2023-02-23T11:00:49;41.23;;;24.10;;
3643;SDS011;1838;50.742;7.158;2023-02-23T11:02:56;38.33;;;21.67;;
3643;SDS011;1838;50.742;7.158;2023-02-23T11:10:35;35.20;;;20.97;;
3643;SDS011;1838;50.742;7.158;2023-02-23T11:13:01;36.33;;;20.00;;
3643;SDS011;1838;50.742;7.158;2023-02-23T11:15:27;35.77;;;20.83;;
3643;SDS011;1838;50.742;7.158;2023-02-23T11:17:58;37.83;;;23.27;;
3643;SDS011;1838;50.742;7.158;2023-02-23T11:20:32;33.97;;;22.57;;
3643;SDS011;1838;50.742;7.158;2023-02-23T11:23:08;33.37;;;20.73;;
3643;SDS011;1838;50.742;7.158;2023-02-23T11:25:36;37.37;;;21.93;;
3643;SDS011;1838;50.742;7.158;2023-02-23T11:28:09;36.43;;;19.50;;
3643;SDS011;1838;50.742;7.158;2023-02-23T11:30:41;36.50;;;20.37;;
3643;SDS011;1838;50.742;7.158;2023-02-23T11:33:07;28.70;;;18.17;;
3643;SDS011;1838;50.742;7.158;2023-02-23T11:35:43;28.30;;;17.87;;
3643;SDS011;1838;50.742;7.158;2023-02-23T11:38:26;31.70;;;19.00;;
3643;SDS011;1838;50.742;7.158;2023-02-23T11:41:09;29.93;;;19.17;;
3643;SDS011;1838;50.742;7.158;2023-02-23T11:43:49;30.90;;;19.90;;
3643;SDS011;1838;50.742;7.158;2023-02-23T11:46:20;31.13;;;19.47;;
3643;SDS011;1838;50.742;7.158;2023-02-23T11:48:50;32.23;;;20.57;;
3643;SDS011;1838;50.742;7.158;2023-02-23T11:51:54;34.03;;;21.57;;
3643;SDS011;1838;50.742;7.158;2023-02-23T11:54:22;30.73;;;19.53;;
3643;SDS011;1838;50.742;7.158;2023-02-23T11:56:52;31.23;;;19.53;;
3643;SDS011;1838;50.742;7.158;2023-02-23T11:59:21;29.67;;;20.30;;
3643;SDS011;1838;50.742;7.158;2023-02-23T12:02:02;36.27;;;20.93;;
3643;SDS011;1838;50.742;7.158;2023-02-23T12:04:43;34.20;;;20.30;;
3643;SDS011;1838;50.742;7.158;2023-02-23T12:07:20;35.10;;;20.20;;
3643;SDS011;1838;50.742;7.158;2023-02-23T12:12:51;35.40;;;20.43;;
3643;SDS011;1838;50.742;7.158;2023-02-23T12:15:21;29.43;;;19.27;;
3643;SDS011;1838;50.742;7.158;2023-02-23T12:18:01;38.33;;;21.97;;
3643;SDS011;1838;50.742;7.158;2023-02-23T12:20:48;39.10;;;20.70;;
3643;SDS011;1838;50.742;7.158;2023-02-23T12:23:19;44.87;;;23.40;;
3643;SDS011;1838;50.742;7.158;2023-02-23T12:25:50;41.43;;;21.77;;
3643;SDS011;1838;50.742;7.158;2023-02-23T12:28:31;44.57;;;24.33;;
3643;SDS011;1838;50.742;7.158;2023-02-23T12:31:04;59.10;;;30.20;;
3643;SDS011;1838;50.742;7.158;2023-02-23T12:33:44;51.40;;;29.27;;
3643;SDS011;1838;50.742;7.158;2023-02-23T12:36:30;59.30;;;29.20;;
3643;SDS011;1838;50.742;7.158;2023-02-23T12:39:15;52.27;;;29.50;;
3643;SDS011;1838;50.742;7.158;2023-02-23T12:45:03;52.00;;;30.47;;
3643;SDS011;1838;50.742;7.158;2023-02-23T12:47:35;56.13;;;29.90;;
3643;SDS011;1838;50.742;7.158;2023-02-23T12:56:03;54.60;;;31.67;;
3643;SDS011;1838;50.742;7.158;2023-02-23T13:01:05;57.63;;;29.07;;
3643;SDS011;1838;50.742;7.158;2023-02-23T13:06:22;57.57;;;28.80;;
3643;SDS011;1838;50.742;7.158;2023-02-23T13:09:12;46.93;;;27.53;;
3643;SDS011;1838;50.742;7.158;2023-02-23T13:14:29;51.87;;;28.33;;
3643;SDS011;1838;50.742;7.158;2023-02-23T13:16:59;50.90;;;27.67;;
3643;SDS011;1838;50.742;7.158;2023-02-23T13:19:35;51.77;;;28.00;;
3643;SDS011;1838;50.742;7.158;2023-02-23T13:22:18;55.90;;;29.13;;
3643;SDS011;1838;50.742;7.158;2023-02-23T13:24:57;57.30;;;29.83;;
3643;SDS011;1838;50.742;7.158;2023-02-23T13:27:42;56.30;;;29.70;;
3643;SDS011;1838;50.742;7.158;2023-02-23T13:30:15;72.03;;;36.27;;
3643;SDS011;1838;50.742;7.158;2023-02-23T13:32:41;77.00;;;35.60;;
3643;SDS011;1838;50.742;7.158;2023-02-23T13:35:12;72.63;;;34.10;;
3643;SDS011;1838;50.742;7.158;2023-02-23T13:37:53;78.73;;;35.27;;
3643;SDS011;1838;50.742;7.158;2023-02-23T13:45:52;73.80;;;30.90;;
3643;SDS011;1838;50.742;7.158;2023-02-23T13:48:41;65.07;;;26.80;;
3643;SDS011;1838;50.742;7.158;2023-02-23T13:56:48;79.23;;;28.57;;
3643;SDS011;1838;50.742;7.158;2023-02-23T13:59:19;57.40;;;23.30;;
3643;SDS011;1838;50.742;7.158;2023-02-23T14:01:53;49.40;;;21.60;;
3643;SDS011;1838;50.742;7.158;2023-02-23T14:04:21;59.20;;;22.33;;
3643;SDS011;1838;50.742;7.158;2023-02-23T14:07:03;47.67;;;21.27;;
3643;SDS011;1838;50.742;7.158;2023-02-23T14:12:31;60.93;;;21.83;;
3643;SDS011;1838;50.742;7.158;2023-02-23T14:18:31;47.43;;;22.60;;
3643;SDS011;1838;50.742;7.158;2023-02-23T14:23:49;189.43;;;70.13;;
3643;SDS011;1838;50.742;7.158;2023-02-23T14:26:16;82.17;;;36.13;;
3643;SDS011;1838;50.742;7.158;2023-02-23T14:28:46;64.30;;;25.80;;
3643;SDS011;1838;50.742;7.158;2023-02-23T14:31:33;58.97;;;24.70;;
3643;SDS011;1838;50.742;7.158;2023-02-23T14:33:59;66.50;;;26.03;;
3643;SDS011;1838;50.742;7.158;2023-02-23T14:36:32;63.20;;;26.50;;
3643;SDS011;1838;50.742;7.158;2023-02-23T14:39:01;63.13;;;28.57;;
3643;SDS011;1838;50.742;7.158;2023-02-23T14:44:13;63.43;;;26.00;;
3643;SDS011;1838;50.742;7.158;2023-02-23T14:47:10;59.33;;;26.07;;
3643;SDS011;1838;50.742;7.158;2023-02-23T14:49:43;61.93;;;27.93;;
3643;SDS011;1838;50.742;7.158;2023-02-23T14:52:21;72.23;;;42.40;;
3643;SDS011;1838;50.742;7.158;2023-02-23T14:54:50;60.80;;;33.87;;
3643;SDS011;1838;50.742;7.158;2023-02-23T14:57:17;68.10;;;28.80;;
3643;SDS011;1838;50.742;7.158;2023-02-23T15:00:31;75.40;;;36.00;;
3643;SDS011;1838;50.742;7.158;2023-02-23T15:03:00;66.30;;;29.10;;
3643;SDS011;1838;50.742;7.158;2023-02-23T15:05:29;64.13;;;28.93;;
3643;SDS011;1838;50.742;7.158;2023-02-23T15:08:02;77.33;;;35.30;;
3643;SDS011;1838;50.742;7.158;2023-02-23T15:16:04;67.13;;;28.53;;
3643;SDS011;1838;50.742;7.158;2023-02-23T15:22:17;64.63;;;26.07;;
3643;SDS011;1838;50.742;7.158;2023-02-23T15:24:54;70.00;;;26.90;;
3643;SDS011;1838;50.742;7.158;2023-02-23T15:27:23;69.50;;;27.50;;
3643;SDS011;1838;50.742;7.158;2023-02-23T15:29:53;62.33;;;25.73;;
3643;SDS011;1838;50.742;7.158;2023-02-23T15:32:23;66.83;;;26.87;;
3643;SDS011;1838;50.742;7.158;2023-02-23T15:34:50;66.70;;;25.87;;
3643;SDS011;1838;50.742;7.158;2023-02-23T15:37:28;64.40;;;26.80;;
3643;SDS011;1838;50.742;7.158;2023-02-23T15:40:09;51.23;;;23.63;;
3643;SDS011;1838;50.742;7.158;2023-02-23T15:42:40;63.00;;;27.17;;
3643;SDS011;1838;50.742;7.158;2023-02-23T15:45:34;60.87;;;25.07;;
3643;SDS011;1838;50.742;7.158;2023-02-23T15:48:12;52.00;;;24.70;;
3643;SDS011;1838;50.742;7.158;2023-02-23T15:50:54;56.20;;;24.50;;
3643;SDS011;1838;50.742;7.158;2023-02-23T15:53:23;53.47;;;24.60;;
3643;SDS011;1838;50.742;7.158;2023-02-23T15:55:55;50.93;;;23.33;;
3643;SDS011;1838;50.742;7.158;2023-02-23T15:58:31;54.33;;;22.23;;
3643;SDS011;1838;50.742;7.158;2023-02-23T16:01:13;47.10;;;22.40;;
3643;SDS011;1838;50.742;7.158;2023-02-23T16:04:06;58.37;;;24.67;;
3643;SDS011;1838;50.742;7.158;2023-02-23T16:07:24;48.60;;;21.07;;
3643;SDS011;1838;50.742;7.158;2023-02-23T16:09:32;48.10;;;22.07;;
3643;SDS011;1838;50.742;7.158;2023-02-23T16:12:03;46.73;;;21.37;;
3643;SDS011;1838;50.742;7.158;2023-02-23T16:14:42;50.00;;;22.40;;
3643;SDS011;1838;50.742;7.158;2023-02-23T16:17:21;46.70;;;21.67;;
3643;SDS011;1838;50.742;7.158;2023-02-23T16:19:51;56.37;;;21.50;;
3643;SDS011;1838;50.742;7.158;2023-02-23T16:22:31;50.27;;;21.10;;
3643;SDS011;1838;50.742;7.158;2023-02-23T16:25:02;47.67;;;21.67;;
3643;SDS011;1838;50.742;7.158;2023-02-23T16:27:31;49.10;;;21.63;;
3643;SDS011;1838;50.742;7.158;2023-02-23T16:29:58;61.77;;;23.60;;
3643;SDS011;1838;50.742;7.158;2023-02-23T16:32:42;46.90;;;21.97;;
3643;SDS011;1838;50.742;7.158;2023-02-23T16:35:32;51.37;;;21.60;;
3643;SDS011;1838;50.742;7.158;2023-02-23T16:38:32;51.47;;;21.17;;
3643;SDS011;1838;50.742;7.158;2023-02-23T16:41:03;46.77;;;20.57;;
3643;SDS011;1838;50.742;7.158;2023-02-23T16:43:29;51.10;;;21.60;;
3643;SDS011;1838;50.742;7.158;2023-02-23T16:45:58;41.07;;;19.40;;
3643;SDS011;1838;50.742;7.158;2023-02-23T16:48:26;43.20;;;20.10;;
3643;SDS011;1838;50.742;7.158;2023-02-23T16:50:52;47.90;;;21.53;;
3643;SDS011;1838;50.742;7.158;2023-02-23T16:53:17;42.00;;;20.47;;
3643;SDS011;1838;50.742;7.158;2023-02-23T16:55:49;42.33;;;20.70;;
3643;SDS011;1838;50.742;7.158;2023-02-23T16:58:18;44.40;;;20.33;;
3643;SDS011;1838;50.742;7.158;2023-02-23T17:00:47;46.57;;;20.20;;
3643;SDS011;1838;50.742;7.158;2023-02-23T17:03:16;54.53;;;22.20;;
3643;SDS011;1838;50.742;7.158;2023-02-23T17:05:44;47.60;;;20.30;;
3643;SDS011;1838;50.742;7.158;2023-02-23T17:08:10;38.50;;;19.70;;
3643;SDS011;1838;50.742;7.158;2023-02-23T17:10:36;42.60;;;18.83;;